Impacts TAF Board
For situational awareness. Not to be used for flight planning purposes.
IDs:

KDCA - Washington/National, VA, US

Issued at 2320 UTC 21 Sep 2021
Updated at 2359 UTC 21 Sep 2021
Potential Impact None Slight Moderate High
Time2352Z 22/00Z 22/01Z 22/02Z 22/03Z 22/04Z 22/05Z 22/06Z 22/07Z 22/08Z 22/09Z 22/10Z 22/11Z 22/12Z>>
Type OBS PRVL PRVL PRVL PRVL PRVL PRVL PRVL PRVL PRVL PRVL PRVL PRVL PRVL
VIS 10 >6 >6 >6 >6 >6 >6 6 6 6 6 6 6 6
CIG 75 60 60 60 60 60 60 15 15 15 15 15 15 15
Cover BKN OVC OVC OVC OVC OVC OVC OVC OVC OVC OVC OVC OVC OVC
FltCat VFR VFR VFR VFR VFR VFR VFR MVFR MVFR MVFR MVFR MVFR MVFR MVFR
WX -- -- -- -- -- -- -- SHRA SHRA SHRA SHRA SHRA SHRA SHRA
WDir 120 120 120 120 120 120 120 120 120 120 120 120 120 120
WSpd 4 8 8 8 8 8 8 6 6 6 6 6 6 6
WGst -- -- -- -- -- -- -- -- -- -- -- -- -- --
Raw TAF
KDCA 212320Z 2200/2306 12008KT P6SM OVC060
  FM220600 12006KT 6SM SHRA OVC015
  FM221600 15012G22KT 6SM -SHRA OVC030
  FM222200 14012G24KT 5SM -SHRA BR OVC015
  FM230000 14011G20KT 6SM -SHRA OVC010


Raw METAR
KDCA 212352Z 12004KT 10SM FEW050 BKN075 BKN120 25/19 A3019 RMK AO2 SLP222 T02500189 10272 20250 56006
KDCA 212252Z 13006KT 10SM FEW050 OVC075 26/18 A3019 RMK AO2 SLP224 T02560183
KDCA 212152Z 11010KT 10SM FEW048 BKN060 OVC080 26/18 A3020 RMK AO2 SLP225 T02610183
KDCA 212052Z 14011KT 10SM FEW043 BKN055 OVC075 27/17 A3020 RMK AO2 SLP227 T02670172 56012

METAR Board
Radar Display
Forecast Discussion
For situational awareness. Not to be used for flight planning purposes.